createdAt,value
2023-02-14T00:03:18.906Z,13.15
2023-02-14T00:08:21.427Z,13.63
2023-02-14T00:13:27.273Z,14.15
2023-02-14T00:19:01.966Z,14.07
2023-02-14T00:24:15.226Z,16.08
2023-02-14T00:29:34.015Z,13.00
2023-02-14T00:34:43.071Z,12.75
2023-02-14T00:39:48.221Z,14.13
2023-02-14T00:44:54.053Z,13.30
2023-02-14T00:50:05.864Z,15.85
2023-02-14T00:55:14.858Z,16.10
2023-02-14T01:00:31.516Z,16.55
2023-02-14T01:05:35.945Z,15.23
2023-02-14T01:10:42.693Z,15.93
2023-02-14T01:15:51.267Z,17.55
2023-02-14T01:21:21.977Z,15.95
2023-02-14T01:26:36.635Z,17.40
2023-02-14T01:31:43.489Z,16.08
2023-02-14T01:36:53.592Z,14.40
2023-02-14T01:42:00.559Z,17.52
2023-02-14T01:47:15.876Z,15.02
2023-02-14T01:52:42.788Z,16.92
2023-02-14T01:58:00.325Z,17.33
2023-02-14T02:05:25.985Z,16.10
2023-02-14T02:10:33.787Z,14.73
2023-02-14T02:15:55.284Z,14.85
2023-02-14T02:21:22.459Z,16.40
2023-02-14T02:26:55.873Z,15.25
2023-02-14T02:32:24.654Z,16.50
2023-02-14T02:37:54.365Z,15.57
2023-02-14T02:43:38.175Z,15.25
2023-02-14T02:49:49.193Z,14.77
2023-02-14T02:55:06.242Z,14.88
2023-02-14T03:00:15.472Z,13.75
2023-02-14T03:05:35.546Z,13.63
2023-02-14T03:10:40.024Z,13.50
2023-02-14T03:16:15.932Z,15.35
2023-02-14T03:22:14.290Z,13.15
2023-02-14T03:27:50.664Z,12.45
2023-02-14T03:33:06.904Z,13.18
2023-02-14T03:38:50.363Z,12.68
2023-02-14T03:44:04.293Z,12.85
2023-02-14T03:49:21.017Z,13.10
2023-02-14T03:54:27.649Z,14.50
2023-02-14T03:59:35.950Z,13.48
2023-02-14T04:04:47.933Z,15.40
2023-02-14T04:09:50.139Z,13.25
2023-02-14T04:14:57.485Z,17.33
2023-02-14T04:20:02.931Z,14.18
2023-02-14T04:25:14.711Z,14.13
2023-02-14T04:30:29.003Z,14.68
2023-02-14T04:35:35.003Z,13.57
2023-02-14T04:46:02.293Z,14.60
2023-02-14T04:51:08.243Z,12.95
2023-02-14T04:56:14.237Z,14.43
2023-02-14T05:22:53.334Z,13.13
2023-02-14T05:27:58.272Z,14.30
2023-02-14T05:33:04.626Z,14.10
2023-02-14T05:38:07.255Z,16.33
2023-02-14T05:48:14.647Z,13.70
2023-02-14T05:53:17.500Z,13.45
2023-02-14T05:58:19.720Z,15.35
2023-02-14T06:03:24.324Z,17.02
2023-02-14T06:08:31.541Z,14.20
2023-02-14T06:13:34.395Z,14.93
2023-02-14T06:18:36.725Z,17.17
2023-02-14T06:23:41.915Z,15.93
2023-02-14T06:28:47.039Z,15.68
2023-02-14T06:33:52.842Z,14.85
2023-02-14T06:38:55.148Z,17.70
2023-02-14T06:44:05.846Z,16.38
2023-02-14T06:49:13.599Z,15.00
2023-02-14T06:54:18.675Z,13.98
2023-02-14T06:59:22.153Z,16.65
2023-02-14T07:04:30.702Z,13.95
2023-02-14T07:09:34.963Z,14.60
2023-02-14T07:14:45.286Z,15.75
2023-02-14T07:19:52.530Z,15.18
2023-02-14T07:25:03.270Z,14.35
2023-02-14T07:30:15.659Z,16.60
2023-02-14T07:35:18.384Z,15.27
2023-02-14T07:40:29.314Z,16.25
2023-02-14T07:45:34.365Z,13.45
2023-02-14T07:50:45.510Z,13.45
2023-02-14T08:01:23.015Z,15.52
2023-02-14T08:06:30.604Z,15.95
2023-02-14T08:11:56.498Z,16.55
2023-02-14T08:17:02.988Z,16.15
2023-02-14T08:22:11.831Z,16.77
2023-02-14T08:27:16.726Z,14.23
2023-02-14T08:32:24.097Z,15.88
2023-02-14T08:37:32.531Z,16.48
2023-02-14T08:42:39.082Z,17.63
2023-02-14T08:47:44.250Z,18.58
2023-02-14T08:52:49.275Z,16.42
2023-02-14T08:58:01.783Z,17.58
2023-02-14T09:03:07.880Z,17.10
2023-02-14T09:08:15.503Z,16.17
2023-02-14T09:13:21.546Z,15.60
2023-02-14T09:18:26.631Z,15.73
2023-02-14T09:23:31.264Z,17.25
2023-02-14T09:28:37.699Z,15.05
2023-02-14T09:33:43.548Z,14.82
2023-02-14T09:38:47.685Z,15.02
2023-02-14T09:43:57.113Z,14.25
2023-02-14T09:49:03.405Z,12.93
2023-02-14T09:54:13.337Z,11.40
2023-02-14T09:59:55.096Z,11.98
2023-02-14T10:05:18.183Z,10.88
2023-02-14T10:10:40.226Z,12.75
2023-02-14T10:15:48.765Z,11.82
2023-02-14T10:21:01.622Z,11.15
2023-02-14T10:26:11.968Z,11.30
2023-02-14T10:31:40.636Z,11.18
2023-02-14T10:37:10.831Z,9.95
2023-02-14T10:42:25.456Z,10.48
2023-02-14T10:47:51.028Z,10.88
2023-02-14T10:53:40.890Z,9.25
2023-02-14T10:58:52.467Z,8.93
2023-02-14T11:04:04.363Z,7.75
2023-02-14T11:09:15.152Z,7.07
2023-02-14T11:14:31.784Z,6.88
2023-02-14T11:19:37.534Z,5.65
2023-02-14T11:25:04.103Z,5.35
2023-02-14T11:30:20.353Z,4.53
2023-02-14T11:35:40.822Z,5.30
2023-02-14T11:40:42.859Z,4.30
2023-02-14T11:45:47.417Z,4.88
2023-02-14T11:51:27.040Z,4.13
2023-02-14T11:56:56.146Z,5.60
2023-02-14T12:02:23.583Z,5.10
2023-02-14T12:07:40.332Z,5.67
2023-02-14T12:13:00.982Z,5.38
2023-02-14T12:18:40.321Z,5.03
2023-02-14T12:24:22.342Z,4.38
2023-02-14T12:30:24.930Z,5.43
2023-02-14T12:41:19.949Z,2.50
2023-02-14T12:46:56.966Z,2.90
2023-02-14T12:52:37.459Z,3.05
2023-02-14T12:58:05.700Z,2.50
2023-02-14T13:03:49.826Z,2.72
2023-02-14T13:09:20.737Z,3.10
2023-02-14T13:14:46.638Z,2.65
2023-02-14T13:20:33.546Z,2.85
2023-02-14T13:31:15.137Z,7.70
2023-02-14T13:41:51.493Z,2.70
2023-02-14T13:52:27.537Z,2.70
2023-02-14T13:57:40.001Z,2.28
2023-02-14T14:08:24.881Z,2.75
2023-02-14T14:13:51.386Z,3.22
2023-02-14T14:19:35.833Z,2.50
2023-02-14T14:24:41.566Z,2.72
2023-02-14T14:29:57.779Z,15.30
2023-02-14T14:35:25.672Z,3.97
2023-02-14T14:40:30.041Z,3.42
2023-02-14T14:45:34.059Z,2.80
2023-02-14T14:50:47.252Z,2.63
2023-02-14T14:56:09.431Z,3.00
2023-02-14T15:01:24.790Z,2.78
2023-02-14T15:06:32.068Z,2.83
2023-02-14T15:11:56.079Z,2.85
2023-02-14T15:17:13.823Z,2.60
2023-02-14T15:22:52.894Z,2.65
2023-02-14T15:27:58.560Z,2.50
2023-02-14T15:33:13.137Z,2.72
2023-02-14T15:38:26.210Z,2.88
2023-02-14T15:43:40.176Z,2.70
2023-02-14T15:48:45.141Z,3.10
2023-02-14T15:54:39.344Z,2.95
2023-02-14T15:59:59.375Z,2.33
2023-02-14T16:05:23.894Z,2.47
2023-02-14T16:11:19.209Z,2.33
2023-02-14T16:16:27.929Z,2.72
2023-02-14T16:21:37.457Z,2.80
2023-02-14T16:26:49.455Z,2.45
2023-02-14T16:32:15.570Z,2.80
2023-02-14T16:37:43.920Z,2.40
2023-02-14T16:42:50.039Z,2.65
2023-02-14T16:47:59.159Z,2.72
2023-02-14T16:53:06.321Z,2.72
2023-02-14T16:58:12.818Z,2.72
2023-02-14T17:03:18.930Z,2.80
2023-02-14T17:08:33.123Z,3.13
2023-02-14T17:13:41.127Z,2.80
2023-02-14T17:18:51.681Z,2.42
2023-02-14T17:24:00.882Z,2.50
2023-02-14T17:29:09.100Z,2.65
2023-02-14T17:34:13.468Z,3.10
2023-02-14T17:39:19.529Z,3.30
2023-02-14T17:44:25.557Z,2.67
2023-02-14T17:49:28.298Z,3.50
2023-02-14T17:54:33.879Z,2.78
2023-02-14T17:59:38.147Z,2.78
2023-02-14T18:04:45.279Z,2.63
2023-02-14T18:09:48.764Z,2.88
2023-02-14T18:14:56.231Z,3.28
2023-02-14T18:20:08.601Z,3.20
2023-02-14T18:25:14.233Z,2.75
2023-02-14T18:30:24.203Z,3.83
2023-02-14T18:35:32.835Z,3.60
2023-02-14T18:40:40.068Z,3.40
2023-02-14T18:45:49.637Z,3.63
2023-02-14T18:50:52.819Z,3.58
2023-02-14T18:55:55.071Z,3.97
2023-02-14T19:01:03.121Z,3.50
2023-02-14T19:06:11.956Z,3.80
2023-02-14T19:11:33.675Z,3.50
2023-02-14T19:16:56.516Z,4.00
2023-02-14T19:22:04.019Z,4.25
2023-02-14T19:27:20.256Z,8.38
2023-02-14T19:32:36.690Z,5.30
2023-02-14T19:37:40.406Z,5.18
2023-02-14T19:42:44.101Z,5.43
2023-02-14T19:47:54.225Z,5.03
2023-02-14T19:53:01.980Z,4.18
2023-02-14T19:58:08.094Z,4.95
2023-02-14T20:03:15.346Z,5.82
2023-02-14T20:13:52.705Z,5.72
2023-02-14T20:19:02.252Z,6.18
2023-02-14T20:24:10.105Z,6.35
2023-02-14T20:29:17.459Z,6.72
2023-02-14T20:34:28.694Z,7.30
2023-02-14T20:39:36.146Z,8.13
2023-02-14T20:44:49.588Z,7.18
2023-02-14T20:49:52.762Z,6.73
2023-02-14T20:54:59.012Z,5.93
2023-02-14T21:00:08.334Z,6.00
2023-02-14T21:05:22.017Z,7.07
2023-02-14T21:10:27.892Z,7.15
2023-02-14T21:15:33.706Z,7.20
2023-02-14T21:20:40.368Z,7.78
2023-02-14T21:25:44.320Z,7.40
2023-02-14T21:30:48.962Z,7.35
2023-02-14T21:35:55.550Z,8.20
2023-02-14T21:41:12.360Z,6.82
2023-02-14T21:46:20.161Z,7.28
2023-02-14T21:51:26.753Z,6.78
2023-02-14T21:56:31.673Z,7.05
2023-02-14T22:01:43.960Z,6.63
2023-02-14T22:06:54.859Z,7.03
2023-02-14T22:12:13.727Z,6.93
2023-02-14T22:17:24.080Z,7.15
2023-02-14T22:22:40.346Z,7.22
2023-02-14T22:27:47.734Z,7.70
2023-02-14T22:32:52.070Z,7.20
2023-02-14T22:37:57.881Z,8.00
2023-02-14T22:43:02.651Z,8.05
2023-02-14T22:48:07.282Z,6.93
2023-02-14T22:53:16.078Z,7.32
2023-02-14T22:58:22.315Z,7.35
2023-02-14T23:03:27.477Z,8.32
2023-02-14T23:08:35.644Z,7.82
2023-02-14T23:13:57.227Z,8.02
2023-02-14T23:19:28.477Z,7.47
2023-02-14T23:24:35.545Z,7.57
2023-02-14T23:29:47.101Z,8.48
2023-02-14T23:34:53.143Z,8.02
2023-02-14T23:40:03.999Z,9.02
2023-02-14T23:45:29.403Z,8.02
2023-02-14T23:50:34.859Z,9.63
2023-02-14T23:55:38.437Z,8.95
